Ingraham, New York
Current Conditions -  °F | °C
As of 1:53 AM on Monday 24 Nov 2014 (Local Time) from KPBG Reporting Station
Clear Clear  
Wind Chill: 43°   Ceiling: Unl
Heat Index: 48°   Visibility: 10mi
Dew Point: 34°   Wind: 12mph
Humidity: 58%   Direction: 180°S
Pressure: 29.84"   Gusts: NA
Location:  44.7972°N, 73.5243°W
Report Text: KPBG 240653Z AUTO 18010KT 10SM CLR 09/01 A2984 RMK AO2 SLP105 T00890011
Loading
Personal Weather Stations






























Interactive Weather Map New forecast layout! Learn more

10-Day Weather Forecast

Advertisements
Track Severe Weather on mobile